createdAt,value
2024-02-23T00:01:10.096Z,13.40
2024-02-23T00:03:37.996Z,10.60
2024-02-23T00:06:10.246Z,11.80
2024-02-23T00:08:39.054Z,13.10
2024-02-23T00:11:07.590Z,16.00
2024-02-23T00:13:35.296Z,22.40
2024-02-23T00:16:02.868Z,25.30
2024-02-23T00:18:31.027Z,23.10
2024-02-23T00:20:58.709Z,20.00
2024-02-23T00:23:26.513Z,18.60
2024-02-23T00:25:54.214Z,17.70
2024-02-23T00:28:21.672Z,19.30
2024-02-23T00:30:49.189Z,19.30
2024-02-23T00:33:16.720Z,19.10
2024-02-23T00:35:46.642Z,18.00
2024-02-23T00:38:14.308Z,16.70
2024-02-23T00:40:41.877Z,16.90
2024-02-23T00:43:10.793Z,17.00
2024-02-23T00:45:38.450Z,17.40
2024-02-23T00:48:06.226Z,19.20
2024-02-23T00:50:33.787Z,17.90
2024-02-23T00:53:01.531Z,21.30
2024-02-23T00:55:29.184Z,15.70
2024-02-23T00:57:57.464Z,12.40
2024-02-23T01:00:24.986Z,18.30
2024-02-23T01:02:54.958Z,15.70
2024-02-23T01:05:22.862Z,17.40
2024-02-23T01:07:52.931Z,15.40
2024-02-23T01:10:20.368Z,13.30
2024-02-23T01:12:50.353Z,14.80
2024-02-23T01:15:17.876Z,13.30
2024-02-23T01:17:45.979Z,13.40
2024-02-23T01:20:14.789Z,13.80
2024-02-23T01:22:44.904Z,15.30
2024-02-23T01:25:12.691Z,14.50
2024-02-23T01:27:41.144Z,13.50
2024-02-23T01:30:09.164Z,12.90
2024-02-23T01:32:38.998Z,14.20
2024-02-23T01:35:07.481Z,14.30
2024-02-23T01:37:35.493Z,13.70
2024-02-23T01:40:03.040Z,11.90
2024-02-23T01:42:30.732Z,12.20
2024-02-23T01:44:58.547Z,10.60
2024-02-23T01:47:26.312Z,10.50
2024-02-23T01:49:56.289Z,10.40
2024-02-23T01:52:23.998Z,10.00
2024-02-23T01:54:52.417Z,9.10
2024-02-23T01:57:33.813Z,9.30
2024-02-23T02:00:10.137Z,9.90
2024-02-23T02:02:37.975Z,8.20
2024-02-23T02:05:05.770Z,7.90
2024-02-23T02:07:33.343Z,8.10
2024-02-23T02:10:01.289Z,8.00
2024-02-23T02:12:29.497Z,8.00
2024-02-23T02:14:57.085Z,8.30
2024-02-23T02:17:24.722Z,7.90
2024-02-23T02:19:52.385Z,6.90
2024-02-23T02:22:19.915Z,8.00
2024-02-23T02:24:49.348Z,9.10
2024-02-23T02:27:19.212Z,12.70
2024-02-23T02:29:51.726Z,12.80
2024-02-23T02:32:21.731Z,15.60
2024-02-23T02:34:49.554Z,14.80
2024-02-23T02:37:16.981Z,15.40
2024-02-23T02:39:44.401Z,15.40
2024-02-23T02:42:11.980Z,15.20
2024-02-23T02:44:39.551Z,14.60
2024-02-23T02:47:07.246Z,15.20
2024-02-23T02:49:34.877Z,15.20
2024-02-23T02:52:03.066Z,16.20
2024-02-23T02:54:30.517Z,15.60
2024-02-23T02:56:58.118Z,14.70
2024-02-23T02:59:28.590Z,14.90
2024-02-23T03:01:58.555Z,14.10
2024-02-23T03:04:26.144Z,14.50
2024-02-23T03:06:53.714Z,14.60
2024-02-23T03:09:21.163Z,15.30
2024-02-23T03:11:49.044Z,5.20
2024-02-23T03:14:19.626Z,11.60
2024-02-23T03:16:49.158Z,12.60
2024-02-23T03:19:16.919Z,14.60
2024-02-23T03:21:44.433Z,14.90
2024-02-23T03:24:12.017Z,16.00
2024-02-23T03:26:39.962Z,15.40
2024-02-23T03:29:07.924Z,15.50
2024-02-23T03:31:37.689Z,15.20
2024-02-23T03:34:05.182Z,14.00
2024-02-23T03:36:32.728Z,14.60
2024-02-23T03:39:00.221Z,15.90
2024-02-23T03:41:27.759Z,15.60
2024-02-23T03:43:56.060Z,14.30
2024-02-23T03:46:23.602Z,12.80
2024-02-23T03:48:51.292Z,11.60
2024-02-23T03:51:19.132Z,12.60
2024-02-23T03:53:46.618Z,11.40
2024-02-23T03:56:14.167Z,12.20
2024-02-23T03:58:41.660Z,11.20
2024-02-23T04:01:09.806Z,13.10
2024-02-23T04:03:37.447Z,12.90
2024-02-23T04:06:08.684Z,13.00
2024-02-23T04:08:36.861Z,12.70
2024-02-23T04:11:04.721Z,11.10
2024-02-23T04:13:35.289Z,11.50
2024-02-23T04:16:03.456Z,10.80
2024-02-23T04:18:31.041Z,10.10
2024-02-23T04:20:58.611Z,11.00
2024-02-23T04:23:26.241Z,10.80
2024-02-23T04:25:53.740Z,11.50
2024-02-23T04:28:21.358Z,10.80
2024-02-23T04:30:48.907Z,9.90
2024-02-23T04:33:16.454Z,9.80
2024-02-23T04:35:44.190Z,9.80
2024-02-23T04:38:12.038Z,11.30
2024-02-23T04:40:41.969Z,10.70
2024-02-23T04:43:09.647Z,11.00
2024-02-23T04:45:37.185Z,10.50
2024-02-23T04:48:05.108Z,11.10
2024-02-23T04:50:32.930Z,10.70
2024-02-23T04:53:00.664Z,11.40
2024-02-23T04:55:28.209Z,13.80
2024-02-23T04:57:55.651Z,13.60
2024-02-23T05:00:23.229Z,14.40
2024-02-23T05:02:50.765Z,14.30
2024-02-23T05:05:18.300Z,17.80
2024-02-23T05:07:48.496Z,18.30
2024-02-23T05:10:17.983Z,19.30
2024-02-23T05:12:45.497Z,19.80
2024-02-23T05:15:12.968Z,18.40
2024-02-23T05:17:40.595Z,17.40
2024-02-23T05:20:10.948Z,15.30
2024-02-23T05:22:39.686Z,14.50
2024-02-23T05:25:10.420Z,13.90
2024-02-23T05:27:38.102Z,12.60
2024-02-23T05:30:06.884Z,11.90
2024-02-23T05:32:34.674Z,11.70
2024-02-23T05:35:03.015Z,11.70
2024-02-23T05:37:30.562Z,12.20
2024-02-23T05:40:00.992Z,14.40
2024-02-23T05:42:28.659Z,13.60
2024-02-23T05:44:56.184Z,17.30
2024-02-23T05:47:26.605Z,18.70
2024-02-23T05:49:56.915Z,21.40
2024-02-23T05:52:24.501Z,19.50
2024-02-23T05:54:53.229Z,17.40
2024-02-23T05:57:20.732Z,14.50
2024-02-23T05:59:48.280Z,14.20
2024-02-23T06:02:15.748Z,11.80
2024-02-23T06:04:44.426Z,12.00
2024-02-23T06:07:11.972Z,14.20
2024-02-23T06:09:39.828Z,12.70
2024-02-23T06:12:08.036Z,12.00
2024-02-23T06:14:36.072Z,13.90
2024-02-23T06:17:05.082Z,20.90
2024-02-23T06:19:32.965Z,17.90
2024-02-23T06:22:00.560Z,16.90
2024-02-23T06:24:28.044Z,16.30
2024-02-23T06:26:55.543Z,14.70
2024-02-23T06:29:23.022Z,13.80
2024-02-23T06:31:50.965Z,12.30
2024-02-23T06:34:18.752Z,14.80
2024-02-23T06:36:46.256Z,13.90
2024-02-23T06:39:13.924Z,13.90
2024-02-23T06:41:41.597Z,13.50
2024-02-23T06:44:12.366Z,13.90
2024-02-23T06:46:40.038Z,12.50
2024-02-23T06:49:08.562Z,13.40
2024-02-23T06:51:36.382Z,12.90
2024-02-23T06:54:05.016Z,13.10
2024-02-23T06:56:33.014Z,16.10
2024-02-23T06:59:02.771Z,18.90
2024-02-23T07:01:30.275Z,21.00
2024-02-23T07:03:57.830Z,23.30
2024-02-23T07:06:25.452Z,17.60
2024-02-23T07:08:53.034Z,16.50
2024-02-23T07:11:22.858Z,18.00
2024-02-23T07:13:50.727Z,17.80
2024-02-23T07:16:18.279Z,21.30
2024-02-23T07:18:45.819Z,21.10
2024-02-23T07:21:13.306Z,21.40
2024-02-23T07:23:40.939Z,20.90
2024-02-23T07:26:08.689Z,20.50
2024-02-23T07:28:36.251Z,21.70
2024-02-23T07:31:04.085Z,20.80
2024-02-23T07:33:31.757Z,22.40
2024-02-23T07:35:59.941Z,24.10
2024-02-23T07:38:27.492Z,24.40
2024-02-23T07:40:55.110Z,24.00
2024-02-23T07:43:22.681Z,22.60
2024-02-23T07:46:09.754Z,22.10
2024-02-23T07:48:37.771Z,21.70
2024-02-23T07:51:06.322Z,22.20
2024-02-23T07:53:33.968Z,22.30
2024-02-23T07:56:03.799Z,19.40
2024-02-23T07:58:31.661Z,18.20
2024-02-23T08:00:59.324Z,16.30
2024-02-23T08:03:27.593Z,12.10
2024-02-23T08:05:55.159Z,12.30
2024-02-23T08:08:25.180Z,11.70
2024-02-23T08:10:52.895Z,8.40
2024-02-23T08:13:20.640Z,8.80
2024-02-23T08:15:48.145Z,8.30
2024-02-23T08:18:15.724Z,8.10
2024-02-23T08:20:43.389Z,9.10
2024-02-23T08:23:11.353Z,9.80
2024-02-23T08:25:39.068Z,9.20
2024-02-23T08:28:07.431Z,9.60
2024-02-23T08:30:35.074Z,8.90
2024-02-23T08:33:02.734Z,7.60
2024-02-23T08:35:30.850Z,7.70
2024-02-23T08:37:58.434Z,7.70
2024-02-23T08:40:25.900Z,6.10
2024-02-23T08:42:53.821Z,3.40
2024-02-23T08:45:21.535Z,3.80
2024-02-23T08:47:49.226Z,3.30
2024-02-23T08:50:17.100Z,5.00
2024-02-23T08:52:44.974Z,5.20
2024-02-23T08:55:13.039Z,5.50
2024-02-23T08:57:40.888Z,5.90
2024-02-23T09:00:14.718Z,4.90
2024-02-23T09:02:43.952Z,5.00
2024-02-23T09:05:11.597Z,4.30
2024-02-23T09:07:39.352Z,4.20
2024-02-23T09:10:07.954Z,4.20
2024-02-23T09:12:35.586Z,4.00
2024-02-23T09:15:04.085Z,4.00
2024-02-23T09:17:32.024Z,4.50
2024-02-23T09:19:59.600Z,4.60
2024-02-23T09:22:27.741Z,5.30
2024-02-23T09:24:57.787Z,7.50
2024-02-23T09:27:25.345Z,12.00
2024-02-23T09:29:53.059Z,12.00
2024-02-23T09:32:20.577Z,10.40
2024-02-23T09:34:48.187Z,10.00
2024-02-23T09:37:15.836Z,12.70
2024-02-23T09:39:43.449Z,12.70
2024-02-23T09:42:12.562Z,13.80
2024-02-23T09:44:40.243Z,13.00
2024-02-23T09:47:12.016Z,12.20
2024-02-23T09:49:41.630Z,14.30
2024-02-23T09:52:10.768Z,21.40
2024-02-23T09:54:39.424Z,16.90
2024-02-23T09:57:09.203Z,19.30
2024-02-23T09:59:40.384Z,16.80
2024-02-23T10:02:15.071Z,17.20
2024-02-23T10:04:44.686Z,17.90
2024-02-23T10:07:20.343Z,19.00
2024-02-23T10:09:48.050Z,13.20
2024-02-23T10:12:17.654Z,11.40
2024-02-23T10:14:45.525Z,11.90
2024-02-23T10:17:13.587Z,12.20
2024-02-23T10:19:41.219Z,12.30
2024-02-23T10:22:08.831Z,16.10
2024-02-23T10:24:38.321Z,18.20
2024-02-23T10:27:06.076Z,17.90
2024-02-23T10:29:33.678Z,15.00
2024-02-23T10:32:02.021Z,14.20
2024-02-23T11:16:41.685Z,19.90
2024-02-23T11:19:12.484Z,17.80
2024-02-23T11:21:40.563Z,22.00
2024-02-23T11:24:08.435Z,24.50
2024-02-23T11:26:38.582Z,23.30
2024-02-23T11:29:13.258Z,24.40
2024-02-23T11:31:46.413Z,26.10
2024-02-23T11:34:13.906Z,24.20
2024-02-23T11:36:41.598Z,21.20
2024-02-23T11:39:09.080Z,20.30
2024-02-23T11:41:36.839Z,18.00
2024-02-23T11:44:04.974Z,19.70
2024-02-23T11:46:32.579Z,17.60
2024-02-23T11:49:01.634Z,18.30
2024-02-23T11:51:32.167Z,23.30
2024-02-23T11:54:01.450Z,15.60
2024-02-23T11:56:30.634Z,15.70
2024-02-23T11:58:58.214Z,20.20
2024-02-23T12:01:25.674Z,40.80
2024-02-23T12:03:53.258Z,42.50
2024-02-23T12:06:20.870Z,33.30
2024-02-23T12:08:48.468Z,23.60
2024-02-23T12:11:16.282Z,20.10
2024-02-23T12:13:44.043Z,15.40
2024-02-23T12:16:11.568Z,16.00
2024-02-23T12:18:39.137Z,14.60
2024-02-23T12:21:07.871Z,11.80
2024-02-23T12:23:46.755Z,11.40
2024-02-23T12:26:15.223Z,13.30
2024-02-23T12:28:43.060Z,11.40
2024-02-23T12:31:10.743Z,11.00
2024-02-23T12:33:41.621Z,13.00
2024-02-23T12:36:10.393Z,12.70
2024-02-23T12:38:38.194Z,13.40
2024-02-23T12:41:06.084Z,14.60
2024-02-23T12:43:33.970Z,13.20
2024-02-23T12:46:04.184Z,14.40
2024-02-23T12:48:31.769Z,16.50
2024-02-23T12:50:59.338Z,13.30
2024-02-23T12:53:40.278Z,15.80
2024-02-23T12:56:12.911Z,15.90
2024-02-23T12:58:42.196Z,16.30
2024-02-23T13:01:09.997Z,10.70
2024-02-23T13:03:39.291Z,10.40
2024-02-23T13:06:07.342Z,12.30
2024-02-23T13:08:36.006Z,13.10
2024-02-23T13:11:04.919Z,10.40
2024-02-23T13:13:33.369Z,10.30
2024-02-23T13:16:00.939Z,10.40
2024-02-23T13:18:28.596Z,11.10
2024-02-23T13:20:56.465Z,12.60
2024-02-23T13:23:24.103Z,11.10
2024-02-23T13:25:51.826Z,10.90
2024-02-23T13:28:19.702Z,11.70
2024-02-23T13:30:47.792Z,11.80
2024-02-23T13:33:17.785Z,13.70
2024-02-23T13:35:45.935Z,14.60
2024-02-23T13:38:13.670Z,15.50
2024-02-23T13:40:41.612Z,16.00
2024-02-23T13:43:10.615Z,16.00
2024-02-23T13:51:54.862Z,17.20
2024-02-23T13:58:28.156Z,18.40
2024-02-23T14:00:59.748Z,18.90
2024-02-23T14:03:32.715Z,21.20
2024-02-23T14:06:13.079Z,19.90
2024-02-23T14:09:06.360Z,19.60
2024-02-23T14:11:35.970Z,19.80
2024-02-23T14:14:05.756Z,18.10
2024-02-23T14:16:33.365Z,20.20
2024-02-23T14:19:00.965Z,18.30
2024-02-23T14:21:31.155Z,19.50
2024-02-23T14:23:58.763Z,19.70
2024-02-23T14:29:51.115Z,19.50
2024-02-23T14:32:20.256Z,23.20
2024-02-23T14:34:49.574Z,24.20
2024-02-23T14:37:20.152Z,36.50
2024-02-23T14:39:48.400Z,34.80
2024-02-23T14:42:15.931Z,31.20
2024-02-23T14:44:43.586Z,33.70
2024-02-23T14:47:11.416Z,29.10
2024-02-23T14:49:38.961Z,23.20
2024-02-23T14:52:06.674Z,20.40
2024-02-23T14:54:34.587Z,20.60
2024-02-23T14:57:02.065Z,18.10
2024-02-23T14:59:31.250Z,16.30
2024-02-23T15:01:58.945Z,18.10
2024-02-23T15:04:26.944Z,16.50
2024-02-23T15:06:54.666Z,20.10
2024-02-23T15:09:22.278Z,23.10
2024-02-23T15:11:56.134Z,22.00
2024-02-23T15:14:49.037Z,18.80
2024-02-23T15:17:16.705Z,19.80
2024-02-23T15:19:44.407Z,20.10
2024-02-23T15:22:16.744Z,24.80
2024-02-23T15:24:50.875Z,22.90
2024-02-23T15:27:18.544Z,19.70
2024-02-23T15:29:47.492Z,16.70
2024-02-23T15:32:18.722Z,22.00
2024-02-23T15:34:47.724Z,26.20
2024-02-23T15:37:15.301Z,26.30
2024-02-23T15:39:48.802Z,28.00
2024-02-23T15:42:17.624Z,32.00
2024-02-23T15:44:46.576Z,30.20
2024-02-23T15:47:14.301Z,29.20
2024-02-23T15:50:01.563Z,29.00
2024-02-23T15:52:29.677Z,28.60
2024-02-23T15:54:57.329Z,30.00
2024-02-23T15:57:24.901Z,30.20
2024-02-23T16:00:02.336Z,28.40
2024-02-23T16:06:20.360Z,28.60
2024-02-23T16:08:49.606Z,29.30
2024-02-23T16:11:17.812Z,29.80
2024-02-23T16:13:46.715Z,29.90
2024-02-23T16:16:16.106Z,29.60
2024-02-23T16:18:45.275Z,31.80
2024-02-23T16:21:17.189Z,35.00
2024-02-23T16:23:44.937Z,38.30
2024-02-23T16:26:12.630Z,36.00
2024-02-23T16:28:40.213Z,36.00
2024-02-23T16:31:07.704Z,29.60
2024-02-23T16:33:35.266Z,28.30
2024-02-23T16:36:03.176Z,26.70
2024-02-23T16:38:30.878Z,25.20
2024-02-23T16:40:58.591Z,25.90
2024-02-23T16:43:26.268Z,25.80
2024-02-23T16:45:53.837Z,23.60
2024-02-23T16:48:21.526Z,34.60
2024-02-23T16:50:51.603Z,36.50
2024-02-23T16:53:19.380Z,41.60
2024-02-23T16:55:47.001Z,42.90
2024-02-23T16:58:15.640Z,40.70
2024-02-23T17:00:43.077Z,40.20
2024-02-23T17:03:10.957Z,39.30
2024-02-23T17:05:38.692Z,35.50
2024-02-23T17:08:06.669Z,35.60
2024-02-23T17:10:34.174Z,32.70
2024-02-23T17:13:01.678Z,28.00
2024-02-23T17:15:29.172Z,27.00
2024-02-23T17:17:57.820Z,25.90
2024-02-23T17:20:25.439Z,26.00
2024-02-23T17:22:54.362Z,27.20
2024-02-23T17:25:21.915Z,26.10
2024-02-23T17:27:51.352Z,27.30
2024-02-23T17:30:20.033Z,24.00
2024-02-23T17:32:47.672Z,19.60
2024-02-23T17:35:16.118Z,22.60
2024-02-23T17:37:43.665Z,25.80
2024-02-23T17:40:11.849Z,28.80
2024-02-23T17:42:39.480Z,28.60
2024-02-23T17:45:11.140Z,26.90
2024-02-23T17:47:39.984Z,27.30
2024-02-23T17:50:10.766Z,28.90
2024-02-23T17:52:38.565Z,32.70
2024-02-23T17:55:06.707Z,45.00
2024-02-23T17:57:34.206Z,55.10
2024-02-23T18:00:04.444Z,68.30
2024-02-23T18:02:35.782Z,43.00
2024-02-23T18:05:04.269Z,33.90
2024-02-23T18:07:32.263Z,32.90
2024-02-23T18:10:00.059Z,27.60
2024-02-23T18:12:27.819Z,27.20
2024-02-23T18:14:55.584Z,28.40
2024-02-23T18:17:24.269Z,37.60
2024-02-23T18:19:51.976Z,34.70
2024-02-23T18:22:19.544Z,33.70
2024-02-23T18:24:47.781Z,33.50
2024-02-23T18:34:24.962Z,34.60
2024-02-23T18:36:52.779Z,44.20
2024-02-23T18:39:20.436Z,53.90
2024-02-23T18:41:48.610Z,77.20
2024-02-23T18:44:16.372Z,48.30
2024-02-23T18:46:44.125Z,34.60
2024-02-23T18:49:11.741Z,28.60
2024-02-23T18:51:40.342Z,24.80
2024-02-23T18:54:07.914Z,26.00
2024-02-23T18:56:35.555Z,23.90
2024-02-23T18:59:04.364Z,23.30
2024-02-23T19:01:32.030Z,23.00
2024-02-23T19:03:59.860Z,21.60
2024-02-23T19:06:27.460Z,24.10
2024-02-23T19:08:55.635Z,32.30
2024-02-23T19:11:23.927Z,26.20
2024-02-23T19:13:51.834Z,23.20
2024-02-23T19:16:20.728Z,22.90
2024-02-23T19:18:48.321Z,17.60
2024-02-23T19:21:19.140Z,17.60
2024-02-23T19:23:46.725Z,16.70
2024-02-23T19:26:14.829Z,18.80
2024-02-23T19:28:43.468Z,18.20
2024-02-23T19:31:11.455Z,15.90
2024-02-23T19:33:39.883Z,15.60
2024-02-23T19:36:13.274Z,16.40
2024-02-23T19:38:43.519Z,15.90
2024-02-23T19:41:11.223Z,17.90
2024-02-23T19:43:38.814Z,22.20
2024-02-23T19:46:14.082Z,17.60
2024-02-23T19:48:46.501Z,18.90
2024-02-23T19:51:15.313Z,16.20
2024-02-23T19:53:45.963Z,14.40
2024-02-23T19:56:15.739Z,13.30
2024-02-23T19:58:43.592Z,15.50
2024-02-23T20:01:12.073Z,17.20
2024-02-23T20:03:39.694Z,20.30
2024-02-23T20:06:13.819Z,20.60
2024-02-23T20:08:41.972Z,16.10
2024-02-23T20:11:10.291Z,12.10
2024-02-23T20:13:38.082Z,13.10
2024-02-23T20:16:05.851Z,12.30
2024-02-23T20:18:33.492Z,11.20
2024-02-23T20:21:02.245Z,11.80
2024-02-23T20:23:29.831Z,16.60
2024-02-23T20:25:57.390Z,18.60
2024-02-23T20:28:25.050Z,17.60
2024-02-23T20:30:54.233Z,22.20
2024-02-23T20:33:21.870Z,26.30
2024-02-23T20:35:49.795Z,30.30
2024-02-23T20:38:22.408Z,29.10
2024-02-23T20:40:50.064Z,27.30
2024-02-23T20:43:17.946Z,23.40
2024-02-23T20:45:46.158Z,18.50
2024-02-23T20:48:14.795Z,16.70
2024-02-23T20:50:42.776Z,16.20
2024-02-23T20:53:13.671Z,17.90
2024-02-23T20:55:41.537Z,19.60
2024-02-23T20:58:09.043Z,20.80
2024-02-23T21:00:38.181Z,24.70
2024-02-23T21:03:06.183Z,25.80
2024-02-23T21:05:40.025Z,29.00
2024-02-23T21:08:11.645Z,29.50
2024-02-23T21:10:41.394Z,29.40
2024-02-23T21:13:09.039Z,29.70
2024-02-23T21:15:38.149Z,27.10
2024-02-23T21:18:06.413Z,29.80
2024-02-23T21:20:34.067Z,31.30
2024-02-23T21:23:02.260Z,37.50
2024-02-23T21:25:29.924Z,41.00
2024-02-23T21:27:57.606Z,38.20
2024-02-23T21:30:25.202Z,36.60
2024-02-23T21:32:53.319Z,38.00
2024-02-23T21:35:21.925Z,34.30
2024-02-23T21:37:49.845Z,34.00
2024-02-23T21:47:49.621Z,23.80
2024-02-23T21:50:18.477Z,22.00
2024-02-23T21:52:46.427Z,23.00
2024-02-23T21:55:14.194Z,22.80
2024-02-23T21:57:41.733Z,21.20
2024-02-23T22:00:09.825Z,20.20
2024-02-23T22:02:37.969Z,20.70
2024-02-23T22:05:06.003Z,23.40
2024-02-23T22:07:35.312Z,23.10
2024-02-23T22:10:03.146Z,26.30
2024-02-23T22:12:31.127Z,29.70
2024-02-23T22:15:04.370Z,28.10
2024-02-23T22:17:31.989Z,25.20
2024-02-23T22:19:59.610Z,24.80
2024-02-23T22:22:29.205Z,21.40
2024-02-23T22:25:01.202Z,23.60
2024-02-23T22:27:29.342Z,22.80
2024-02-23T22:29:57.761Z,21.30
2024-02-23T22:32:28.508Z,22.80
2024-02-23T22:34:56.709Z,22.10
2024-02-23T22:37:24.217Z,20.00
2024-02-23T22:39:51.762Z,19.90
2024-02-23T22:42:19.526Z,21.00
2024-02-23T22:44:47.134Z,20.60
2024-02-23T22:47:14.735Z,20.90
2024-02-23T22:49:42.954Z,20.10
2024-02-23T22:52:11.453Z,20.90
2024-02-23T22:54:40.669Z,21.80
2024-02-23T22:57:10.593Z,20.10
2024-02-23T22:59:38.187Z,19.40
2024-02-23T23:02:06.226Z,17.10
2024-02-23T23:04:33.868Z,15.60
2024-02-23T23:07:01.610Z,16.50
2024-02-23T23:09:29.432Z,16.80
2024-02-23T23:11:56.935Z,17.60
2024-02-23T23:14:24.616Z,17.20
2024-02-23T23:16:52.211Z,15.00
2024-02-23T23:19:21.241Z,13.80
2024-02-23T23:21:49.657Z,11.30
2024-02-23T23:24:17.225Z,11.00
2024-02-23T23:26:46.747Z,12.90
2024-02-23T23:29:14.490Z,12.20
2024-02-23T23:34:24.081Z,11.80
2024-02-23T23:36:53.049Z,10.00
2024-02-23T23:39:21.059Z,9.10
2024-02-23T23:41:50.577Z,9.20
2024-02-23T23:44:18.331Z,8.90
2024-02-23T23:46:45.996Z,10.10
2024-02-23T23:49:13.486Z,9.10
2024-02-23T23:51:49.590Z,10.30
2024-02-23T23:54:24.053Z,9.70
2024-02-23T23:56:51.591Z,9.20
2024-02-23T23:59:19.391Z,10.00
